Terminal Aerodrome Forecast
Issued by NWS

Home | Current Version | Previous Version | Text Only | Print | Product List | Glossary On
Versions: 1 2 3 4 5 6 7 8 9 10 11 12 13 14 15 16 17 18 19 20 21 22 23 24 25 26 27
000
FTUS45 KGJT 300520
TAFDRO
TAF
KDRO 300520Z 3006/3106 17003KT P6SM SCT070 BKN100
     FM300800 28004KT P6SM SCT080 SCT120
     FM302000 28010G20KT P6SM SCT100 BKN150
     FM310000 32012G20KT P6SM BKN250=

USA.gov is the U.S. government's official web portal to all federal, state and local government web resources and services.